createdAt,value
2018-07-06T00:00:27.257Z,100.0
2018-07-06T00:01:27.941Z,100.0
2018-07-06T00:02:28.721Z,100.0
2018-07-06T00:03:29.405Z,100.0
2018-07-06T00:04:30.087Z,100.0
2018-07-06T00:05:30.771Z,100.0
2018-07-06T00:06:31.503Z,100.0
2018-07-06T00:07:32.186Z,100.0
2018-07-06T00:08:32.886Z,100.0
2018-07-06T00:09:33.551Z,100.0
2018-07-06T00:10:34.235Z,100.0
2018-07-06T00:11:34.968Z,100.0
2018-07-06T00:12:35.653Z,100.0
2018-07-06T00:13:36.333Z,100.0
2018-07-06T00:14:37.017Z,100.0
2018-07-06T00:15:37.752Z,100.0
2018-07-06T00:16:38.481Z,100.0
2018-07-06T00:17:39.165Z,100.0
2018-07-06T00:18:39.847Z,100.0
2018-07-06T00:19:40.528Z,100.0
2018-07-06T00:20:41.259Z,100.0
2018-07-06T00:21:41.992Z,100.0
2018-07-06T00:22:42.777Z,100.0
2018-07-06T00:23:43.455Z,100.0
2018-07-06T00:24:44.139Z,100.0
2018-07-06T00:25:44.820Z,100.0
2018-07-06T00:26:45.551Z,100.0
2018-07-06T00:27:46.234Z,100.0
2018-07-06T00:28:46.917Z,100.0
2018-07-06T00:29:47.598Z,100.0
2018-07-06T00:30:48.285Z,100.0
2018-07-06T00:31:49.014Z,100.0
2018-07-06T00:32:49.752Z,100.0
2018-07-06T00:33:50.434Z,100.0
2018-07-06T00:34:51.115Z,100.0
2018-07-06T00:35:51.798Z,100.0
2018-07-06T00:36:52.537Z,100.0
2018-07-06T00:37:53.262Z,100.0
2018-07-06T00:38:53.937Z,100.0
2018-07-06T00:39:54.618Z,100.0
2018-07-06T00:40:55.304Z,100.0
2018-07-06T00:41:55.984Z,100.0
2018-07-06T00:42:56.716Z,100.0
2018-07-06T00:43:57.402Z,100.0
2018-07-06T00:44:58.080Z,100.0
2018-07-06T00:45:58.812Z,100.0
2018-07-06T00:46:59.495Z,100.0
2018-07-06T00:48:00.178Z,100.0
2018-07-06T00:49:00.911Z,100.0
2018-07-06T00:50:01.643Z,100.0
2018-07-06T00:51:02.329Z,100.0
2018-07-06T00:52:03.018Z,100.0
2018-07-06T00:53:03.792Z,100.0
2018-07-06T00:54:04.475Z,100.0
2018-07-06T00:55:05.155Z,100.0
2018-07-06T00:56:05.836Z,100.0
2018-07-06T00:57:06.523Z,100.0
2018-07-06T00:58:07.300Z,100.0
2018-07-06T00:59:07.981Z,100.0
2018-07-06T01:00:08.713Z,100.0
2018-07-06T01:01:09.521Z,100.0
2018-07-06T01:02:10.225Z,100.0
2018-07-06T01:03:10.908Z,100.0
2018-07-06T01:04:11.589Z,100.0
2018-07-06T01:05:12.272Z,100.0
2018-07-06T01:06:13.007Z,100.0
2018-07-06T01:07:13.736Z,100.0
2018-07-06T01:08:14.469Z,100.0
2018-07-06T01:09:15.151Z,100.0
2018-07-06T01:10:15.978Z,100.0
2018-07-06T01:11:16.563Z,100.0
2018-07-06T01:12:17.245Z,100.0
2018-07-06T01:13:17.977Z,100.0
2018-07-06T01:14:18.661Z,100.0
2018-07-06T01:15:19.342Z,100.0
2018-07-06T01:16:20.023Z,100.0
2018-07-06T01:17:20.706Z,100.0
2018-07-06T01:18:21.438Z,100.0
2018-07-06T01:19:22.171Z,100.0
2018-07-06T01:20:22.853Z,100.0
2018-07-06T01:21:23.538Z,100.0
2018-07-06T01:22:24.217Z,100.0
2018-07-06T01:23:24.949Z,100.0
2018-07-06T01:24:25.632Z,100.0
2018-07-06T01:25:26.312Z,100.0
2018-07-06T01:26:26.994Z,100.0
2018-07-06T01:27:27.675Z,100.0
2018-07-06T01:28:28.406Z,100.0
2018-07-06T01:29:29.088Z,100.0
2018-07-06T01:30:29.769Z,100.0
2018-07-06T01:31:30.451Z,100.0
2018-07-06T01:32:31.183Z,100.0
2018-07-06T01:33:31.864Z,100.0
2018-07-06T01:34:32.595Z,100.0
2018-07-06T01:35:33.276Z,100.0
2018-07-06T01:36:34.064Z,100.0
2018-07-06T01:37:34.787Z,100.0
2018-07-06T01:38:35.522Z,100.0
2018-07-06T01:39:36.202Z,100.0
2018-07-06T01:40:36.884Z,100.0
2018-07-06T01:41:37.614Z,100.0
2018-07-06T01:42:38.344Z,100.0
2018-07-06T01:43:39.057Z,100.0
2018-07-06T01:44:39.755Z,100.0
2018-07-06T01:45:40.437Z,100.0
2018-07-06T01:46:41.167Z,100.0
2018-07-06T01:47:41.848Z,100.0
2018-07-06T01:48:42.532Z,100.0
2018-07-06T01:49:43.310Z,100.0
2018-07-06T01:50:43.990Z,100.0
2018-07-06T01:51:44.673Z,100.0
2018-07-06T01:52:45.404Z,100.0
2018-07-06T01:53:46.134Z,100.0
2018-07-06T01:54:46.815Z,100.0
2018-07-06T01:55:47.593Z,100.0
2018-07-06T01:56:48.275Z,100.0
2018-07-06T01:57:48.958Z,100.0
2018-07-06T01:58:49.692Z,100.0
2018-07-06T01:59:50.375Z,100.0
2018-07-06T02:00:51.054Z,100.0
2018-07-06T02:01:51.736Z,100.0
2018-07-06T02:02:52.417Z,100.0
2018-07-06T02:03:53.147Z,100.0
2018-07-06T02:04:53.878Z,100.0
2018-07-06T02:05:54.558Z,100.0
2018-07-06T02:06:55.291Z,100.0
2018-07-06T02:07:55.972Z,100.0
2018-07-06T02:08:56.652Z,100.0
2018-07-06T02:09:57.385Z,100.0
2018-07-06T02:10:58.113Z,100.0
2018-07-06T02:11:58.796Z,100.0
2018-07-06T02:12:59.479Z,100.0
2018-07-06T02:14:00.211Z,100.0
2018-07-06T02:15:00.891Z,100.0
2018-07-06T02:16:01.575Z,100.0
2018-07-06T02:17:02.355Z,100.0
2018-07-06T02:18:03.037Z,100.0
2018-07-06T02:19:03.718Z,100.0
2018-07-06T02:20:04.402Z,100.0
2018-07-06T02:21:05.133Z,100.0
2018-07-06T02:22:05.813Z,100.0
2018-07-06T02:23:06.495Z,100.0
2018-07-06T02:24:07.277Z,100.0
2018-07-06T02:25:07.958Z,100.0
2018-07-06T02:26:08.715Z,100.0
2018-07-06T02:27:09.451Z,100.0
2018-07-06T02:28:10.406Z,100.0
2018-07-06T02:29:11.136Z,100.0
2018-07-06T02:30:11.868Z,100.0
2018-07-06T02:31:12.549Z,100.0
2018-07-06T02:32:13.231Z,100.0
2018-07-06T02:33:13.913Z,100.0
2018-07-06T02:34:14.593Z,100.0
2018-07-06T02:35:15.326Z,100.0
2018-07-06T02:36:16.007Z,100.0
2018-07-06T02:37:16.689Z,100.0
2018-07-06T02:38:17.431Z,100.0
2018-07-06T02:39:18.109Z,100.0
2018-07-06T02:40:18.834Z,100.0
2018-07-06T02:41:19.517Z,100.0
2018-07-06T02:42:20.198Z,100.0
2018-07-06T02:43:20.879Z,100.0
2018-07-06T02:44:21.611Z,100.0
2018-07-06T02:45:22.291Z,100.0
2018-07-06T02:46:23.023Z,100.0
2018-07-06T02:47:23.757Z,100.0
2018-07-06T02:48:24.441Z,100.0
2018-07-06T02:49:25.169Z,100.0
2018-07-06T02:50:25.852Z,100.0
2018-07-06T02:51:26.581Z,100.0
2018-07-06T02:52:27.315Z,100.0
2018-07-06T02:53:28.048Z,100.0
2018-07-06T02:54:28.729Z,100.0
2018-07-06T02:55:29.415Z,100.0
2018-07-06T02:56:30.146Z,100.0
2018-07-06T02:57:30.830Z,100.0
2018-07-06T02:58:31.564Z,100.0
2018-07-06T02:59:32.262Z,100.0
2018-07-06T03:00:32.928Z,100.0
2018-07-06T03:01:33.664Z,100.0
2018-07-06T03:02:34.345Z,100.0
2018-07-06T03:03:35.077Z,100.0
2018-07-06T03:04:35.759Z,99.7
2018-07-06T03:05:36.467Z,100.0
2018-07-06T03:06:37.523Z,100.0
2018-07-06T03:07:38.210Z,100.0
2018-07-06T03:08:38.887Z,99.5
2018-07-06T03:09:39.570Z,99.4
2018-07-06T03:10:40.252Z,100.0
2018-07-06T03:11:40.984Z,99.6
2018-07-06T03:12:41.666Z,98.9
2018-07-06T03:13:42.352Z,100.0
2018-07-06T03:14:43.082Z,99.5
2018-07-06T03:15:43.764Z,98.9
2018-07-06T03:16:44.500Z,98.8
2018-07-06T03:17:45.184Z,98.8
2018-07-06T03:18:45.865Z,99.2
2018-07-06T03:19:46.548Z,99.0
2018-07-06T03:20:47.229Z,98.7
2018-07-06T03:21:47.962Z,97.3
2018-07-06T03:22:48.644Z,97.1
2018-07-06T03:23:49.326Z,97.7
2018-07-06T03:24:50.011Z,97.4
2018-07-06T03:25:50.698Z,97.1
2018-07-06T03:26:51.430Z,97.8
2018-07-06T03:27:52.182Z,98.3
2018-07-06T03:28:52.799Z,97.1
2018-07-06T03:29:53.481Z,97.7
2018-07-06T03:30:54.214Z,97.6
2018-07-06T03:31:54.897Z,97.0
2018-07-06T03:32:55.584Z,97.1
2018-07-06T03:33:56.307Z,97.2
2018-07-06T03:34:57.000Z,97.6
2018-07-06T03:35:57.685Z,98.1
2018-07-06T03:36:58.369Z,98.1
2018-07-06T03:37:59.051Z,97.2
2018-07-06T03:38:59.737Z,98.1
2018-07-06T03:40:00.470Z,98.1
2018-07-06T03:41:01.155Z,98.3
2018-07-06T03:43:03.501Z,98.3
2018-07-06T03:44:04.219Z,98.0
2018-07-06T03:45:04.943Z,98.2
2018-07-06T03:46:05.612Z,98.3
2018-07-06T03:47:06.337Z,97.8
2018-07-06T03:48:07.036Z,97.6
2018-07-06T03:49:07.730Z,97.5
2018-07-06T03:50:08.450Z,98.2
2018-07-06T03:51:09.122Z,97.3
2018-07-06T03:52:09.792Z,96.9
2018-07-06T03:53:10.517Z,97.6
2018-07-06T03:54:11.237Z,97.3
2018-07-06T03:55:11.911Z,97.3
2018-07-06T03:56:12.581Z,97.9
2018-07-06T03:57:13.253Z,98.4
2018-07-06T03:58:13.975Z,97.3
2018-07-06T03:59:14.698Z,97.7
2018-07-06T04:00:15.372Z,98.7
2018-07-06T04:01:16.092Z,99.2
2018-07-06T04:02:16.819Z,98.9
2018-07-06T04:03:17.485Z,99.0
2018-07-06T04:04:18.209Z,98.6
2018-07-06T04:05:18.883Z,98.7
2018-07-06T04:06:19.605Z,99.1
2018-07-06T04:07:20.278Z,99.1
2018-07-06T04:08:20.952Z,99.1
2018-07-06T04:09:21.625Z,99.3
2018-07-06T04:10:22.348Z,98.6
2018-07-06T04:11:23.023Z,98.0
2018-07-06T04:12:23.697Z,97.5
2018-07-06T04:13:24.422Z,98.2
2018-07-06T04:14:25.104Z,97.3
2018-07-06T04:15:25.768Z,96.7
2018-07-06T04:16:26.443Z,96.5
2018-07-06T04:17:27.172Z,96.8
2018-07-06T04:20:58.897Z,96.7
2018-07-06T04:21:59.621Z,96.8
2018-07-06T04:23:00.344Z,97.2
2018-07-06T04:24:01.068Z,95.9
2018-07-06T04:25:01.746Z,96.2
2018-07-06T04:26:02.417Z,95.4
2018-07-06T04:27:03.090Z,95.8
2018-07-06T04:28:03.763Z,95.0
2018-07-06T04:29:04.486Z,94.8
2018-07-06T04:30:05.259Z,94.5
2018-07-06T04:31:05.931Z,94.5
2018-07-06T04:32:06.604Z,94.7
2018-07-06T04:33:07.277Z,94.2
2018-07-06T04:34:07.949Z,95.1
2018-07-06T04:35:08.720Z,95.2
2018-07-06T04:36:09.395Z,95.1
2018-07-06T04:37:10.068Z,94.3
2018-07-06T04:38:10.740Z,95.2
2018-07-06T04:39:11.414Z,95.1
2018-07-06T04:40:12.190Z,95.8
2018-07-06T04:41:12.859Z,94.8
2018-07-06T04:42:13.533Z,93.1
2018-07-06T04:43:14.207Z,93.2
2018-07-06T04:44:14.907Z,93.2
2018-07-06T04:45:15.603Z,93.7
2018-07-06T04:46:16.327Z,93.2
2018-07-06T04:47:16.999Z,93.2
2018-07-06T04:48:17.724Z,93.2
2018-07-06T04:49:18.396Z,93.5
2018-07-06T04:50:19.071Z,93.7
2018-07-06T04:51:19.745Z,93.4
2018-07-06T04:52:20.417Z,93.0
2018-07-06T04:53:21.139Z,92.6
2018-07-06T04:54:21.816Z,91.5
2018-07-06T04:55:22.498Z,90.8
2018-07-06T04:56:23.162Z,90.8
2018-07-06T04:57:23.886Z,90.7
2018-07-06T04:58:24.560Z,90.3
2018-07-06T04:59:25.281Z,89.4
2018-07-06T05:00:25.957Z,89.3
2018-07-06T05:01:26.633Z,89.7
2018-07-06T05:02:27.307Z,90.0
2018-07-06T05:03:28.035Z,89.4
2018-07-06T05:04:28.704Z,89.3
2018-07-06T05:05:29.429Z,89.4
2018-07-06T05:06:30.102Z,89.9
2018-07-06T05:07:30.827Z,90.1
2018-07-06T05:08:31.551Z,89.6
2018-07-06T05:09:32.226Z,89.7
2018-07-06T05:10:32.899Z,89.4
2018-07-06T05:11:33.624Z,89.3
2018-07-06T05:12:34.347Z,89.6
2018-07-06T05:13:35.020Z,89.2
2018-07-06T05:14:35.692Z,89.5
2018-07-06T05:15:36.366Z,90.4
2018-07-06T05:16:37.122Z,89.7
2018-07-06T05:17:37.765Z,89.6
2018-07-06T05:18:38.441Z,89.3
2018-07-06T05:19:39.163Z,89.4
2018-07-06T05:20:39.839Z,89.4
2018-07-06T05:21:40.569Z,88.8
2018-07-06T05:22:41.292Z,88.6
2018-07-06T05:23:41.916Z,88.3
2018-07-06T05:24:42.589Z,88.4
2018-07-06T05:25:43.321Z,88.3
2018-07-06T05:26:43.987Z,88.9
2018-07-06T05:27:44.710Z,88.5
2018-07-06T05:28:45.437Z,88.8
2018-07-06T05:29:46.113Z,89.1
2018-07-06T05:30:46.837Z,88.7
2018-07-06T05:31:47.514Z,88.2
2018-07-06T05:32:48.190Z,88.7
2018-07-06T05:33:48.867Z,89.0
2018-07-06T05:34:49.593Z,89.0
2018-07-06T05:35:50.263Z,88.9
2018-07-06T05:36:50.936Z,88.9
2018-07-06T05:37:51.639Z,87.5
2018-07-06T05:38:52.288Z,86.8
2018-07-06T05:39:53.062Z,87.3
2018-07-06T05:40:53.787Z,87.8
2018-07-06T05:41:54.512Z,88.0
2018-07-06T05:42:55.188Z,88.2
2018-07-06T05:43:55.914Z,88.3
2018-07-06T05:44:56.589Z,87.5
2018-07-06T05:45:57.263Z,87.4
2018-07-06T05:46:57.939Z,87.8
2018-07-06T05:47:58.707Z,88.3
2018-07-06T05:48:59.391Z,87.9
2018-07-06T05:50:00.167Z,87.6
2018-07-06T05:51:00.891Z,86.7
2018-07-06T05:52:01.571Z,87.3
2018-07-06T05:53:02.293Z,87.1
2018-07-06T05:54:02.971Z,86.9
2018-07-06T05:55:03.697Z,86.5
2018-07-06T05:56:04.425Z,87.1
2018-07-06T05:57:05.100Z,87.8
2018-07-06T05:58:05.778Z,87.7
2018-07-06T05:59:06.454Z,87.8
2018-07-06T06:00:07.181Z,88.0
2018-07-06T06:01:07.857Z,88.0
2018-07-06T06:02:08.581Z,87.6
2018-07-06T06:03:09.262Z,87.5
2018-07-06T06:04:09.980Z,86.7
2018-07-06T06:05:10.706Z,87.1
2018-07-06T06:06:11.381Z,85.5
2018-07-06T06:07:12.059Z,84.7
2018-07-06T06:08:12.733Z,84.9
2018-07-06T06:09:13.408Z,84.9
2018-07-06T06:10:14.133Z,84.4
2018-07-06T06:11:14.812Z,83.5
2018-07-06T06:12:15.503Z,83.2
2018-07-06T06:13:16.250Z,82.6
2018-07-06T06:14:16.977Z,82.0
2018-07-06T06:15:17.654Z,80.5
2018-07-06T06:16:18.379Z,78.3
2018-07-06T06:17:19.107Z,75.8
2018-07-06T06:18:19.786Z,72.1
2018-07-06T06:19:20.465Z,71.7
2018-07-06T06:20:21.141Z,69.3
2018-07-06T06:21:21.866Z,70.3
2018-07-06T06:22:22.592Z,72.5
2018-07-06T06:23:23.271Z,72.2
2018-07-06T06:24:23.948Z,71.0
2018-07-06T06:25:24.674Z,72.1
2018-07-06T06:26:25.352Z,72.5
2018-07-06T06:27:26.079Z,72.5
2018-07-06T06:28:26.807Z,73.5
2018-07-06T06:29:27.488Z,72.3
2018-07-06T06:30:28.220Z,72.0
2018-07-06T06:31:28.951Z,72.3
2018-07-06T06:32:29.631Z,69.8
2018-07-06T06:33:30.415Z,69.0
2018-07-06T06:34:31.037Z,67.9
2018-07-06T06:35:31.718Z,68.7
2018-07-06T06:36:32.451Z,69.8
2018-07-06T06:37:33.129Z,69.6
2018-07-06T06:38:33.809Z,69.7
2018-07-06T06:39:34.492Z,68.9
2018-07-06T06:40:35.172Z,69.8
2018-07-06T06:41:35.902Z,69.0
2018-07-06T06:42:36.832Z,69.4
2018-07-06T06:43:37.508Z,69.4
2018-07-06T06:44:38.205Z,69.0
2018-07-06T06:45:38.921Z,68.9
2018-07-06T06:46:39.741Z,69.7
2018-07-06T06:47:40.380Z,70.4
2018-07-06T06:48:41.058Z,70.2
2018-07-06T06:49:41.740Z,70.7
2018-07-06T06:50:42.478Z,70.6
2018-07-06T06:51:43.195Z,71.1
2018-07-06T06:52:43.926Z,71.4
2018-07-06T06:53:44.606Z,70.7
2018-07-06T06:54:45.285Z,70.7
2018-07-06T06:55:46.017Z,69.5
2018-07-06T06:56:46.746Z,69.2
2018-07-06T06:57:47.428Z,68.9
2018-07-06T06:58:48.110Z,68.2
2018-07-06T06:59:48.791Z,67.5
2018-07-06T07:00:49.471Z,66.8
2018-07-06T07:01:50.207Z,67.5
2018-07-06T07:02:50.937Z,67.4
2018-07-06T07:03:51.615Z,65.9
2018-07-06T07:04:52.348Z,66.1
2018-07-06T07:05:53.029Z,66.0
2018-07-06T07:06:53.707Z,65.6
2018-07-06T07:07:54.436Z,65.1
2018-07-06T07:08:55.128Z,65.6
2018-07-06T07:09:55.900Z,66.1
2018-07-06T07:10:56.583Z,66.2
2018-07-06T07:11:57.265Z,65.6
2018-07-06T07:12:57.946Z,65.0
2018-07-06T07:13:58.687Z,64.3
2018-07-06T07:14:59.360Z,64.3
2018-07-06T07:16:00.043Z,63.9
2018-07-06T07:17:00.825Z,62.9
2018-07-06T07:18:01.509Z,63.2
2018-07-06T07:19:02.191Z,63.2
2018-07-06T07:20:02.924Z,63.0
2018-07-06T07:21:03.624Z,63.7
2018-07-06T07:22:04.297Z,64.1
2018-07-06T07:23:05.021Z,64.3
2018-07-06T07:24:05.752Z,64.1
2018-07-06T07:25:06.434Z,64.1
2018-07-06T07:26:07.115Z,64.0
2018-07-06T07:27:07.796Z,63.2
2018-07-06T07:28:08.529Z,63.1
2018-07-06T07:29:09.257Z,62.1
2018-07-06T07:30:09.911Z,62.0
2018-07-06T07:31:10.575Z,61.9
2018-07-06T07:32:11.310Z,62.3
2018-07-06T07:33:12.089Z,62.1
2018-07-06T07:34:12.773Z,62.0
2018-07-06T07:35:13.505Z,62.0
2018-07-06T07:36:14.186Z,61.7
2018-07-06T07:37:14.865Z,61.1
2018-07-06T07:38:15.597Z,60.2
2018-07-06T07:39:16.279Z,60.5
2018-07-06T07:40:16.961Z,59.0
2018-07-06T07:41:17.693Z,60.2
2018-07-06T07:42:18.374Z,60.4
2018-07-06T07:43:19.108Z,59.1
2018-07-06T07:44:19.790Z,60.1
2018-07-06T07:45:20.472Z,60.1
2018-07-06T07:46:21.157Z,60.0
2018-07-06T07:47:21.886Z,60.0
2018-07-06T07:48:22.618Z,59.8
2018-07-06T07:49:23.299Z,59.7
2018-07-06T07:50:23.983Z,58.3
2018-07-06T07:51:24.666Z,56.4
2018-07-06T07:53:26.081Z,53.6
2018-07-06T07:54:26.804Z,50.5
2018-07-06T07:55:27.490Z,47.8
2018-07-06T07:56:28.173Z,46.8
2018-07-06T07:57:28.855Z,46.8
2018-07-06T07:58:29.589Z,46.1
2018-07-06T07:59:30.271Z,46.1
2018-07-06T08:00:31.062Z,46.2
2018-07-06T08:01:31.645Z,45.4
2018-07-06T08:02:32.326Z,45.7
2018-07-06T08:03:33.058Z,46.0
2018-07-06T08:04:33.740Z,45.8
2018-07-06T08:05:34.424Z,46.6
2018-07-06T08:06:35.159Z,47.0
2018-07-06T08:07:35.792Z,48.2
2018-07-06T08:08:36.528Z,48.6
2018-07-06T08:09:37.212Z,49.1
2018-07-06T08:10:37.947Z,49.5
2018-07-06T08:11:38.631Z,50.2
2018-07-06T08:12:39.311Z,50.3
2018-07-06T08:13:40.049Z,51.0
2018-07-06T08:14:40.777Z,52.0
2018-07-06T08:15:41.459Z,54.1
2018-07-06T08:16:42.141Z,54.7
2018-07-06T08:17:42.876Z,55.7
2018-07-06T08:18:43.562Z,56.5
2018-07-06T08:19:44.294Z,57.2
2018-07-06T08:20:45.029Z,58.2
2018-07-06T08:21:45.763Z,58.3
2018-07-06T08:22:46.446Z,56.9
2018-07-06T08:23:47.181Z,56.9
2018-07-06T08:24:47.863Z,56.1
2018-07-06T08:25:48.546Z,54.6
2018-07-06T08:26:49.258Z,54.1
2018-07-06T08:27:49.964Z,52.8
2018-07-06T08:28:50.704Z,52.8
2018-07-06T08:29:51.378Z,52.2
2018-07-06T08:30:52.113Z,51.6
2018-07-06T08:31:52.796Z,51.7
2018-07-06T08:32:53.478Z,51.7
2018-07-06T08:33:54.160Z,52.0
2018-07-06T08:34:54.894Z,50.5
2018-07-06T08:35:55.578Z,51.0
2018-07-06T08:36:56.311Z,51.7
2018-07-06T08:37:56.996Z,50.6
2018-07-06T08:38:57.732Z,50.7
2018-07-06T08:39:58.559Z,51.1
2018-07-06T08:40:59.242Z,50.7
2018-07-06T08:41:59.924Z,50.8
2018-07-06T08:43:00.608Z,50.7
2018-07-06T08:44:01.296Z,50.6
2018-07-06T08:45:02.075Z,50.9
2018-07-06T08:46:02.757Z,50.5
2018-07-06T08:47:03.440Z,52.1
2018-07-06T08:48:04.176Z,52.7
2018-07-06T08:49:04.860Z,53.1
2018-07-06T08:50:05.543Z,53.3
2018-07-06T08:51:06.275Z,53.7
2018-07-06T08:52:06.957Z,54.3
2018-07-06T08:53:07.639Z,53.6
2018-07-06T08:54:08.320Z,54.1
2018-07-06T08:55:09.053Z,54.1
2018-07-06T08:56:09.785Z,54.1
2018-07-06T08:57:10.468Z,54.1
2018-07-06T08:58:11.149Z,54.6
2018-07-06T08:59:11.829Z,54.0
2018-07-06T09:00:12.617Z,54.7
2018-07-06T09:01:13.247Z,54.2
2018-07-06T09:02:13.928Z,52.6
2018-07-06T09:03:14.613Z,50.7
2018-07-06T09:04:15.387Z,50.0
2018-07-06T09:05:16.072Z,49.8
2018-07-06T09:06:16.804Z,48.3
2018-07-06T09:07:17.494Z,48.3
2018-07-06T09:08:18.222Z,46.7
2018-07-06T09:09:18.943Z,46.1
2018-07-06T09:10:19.590Z,45.3
2018-07-06T09:11:20.324Z,45.9
2018-07-06T09:12:21.008Z,46.0
2018-07-06T09:13:21.691Z,46.0
2018-07-06T09:14:22.377Z,46.6
2018-07-06T09:15:23.060Z,47.3
2018-07-06T09:16:23.920Z,47.3
2018-07-06T09:17:24.532Z,48.9
2018-07-06T09:18:25.211Z,48.9
2018-07-06T09:19:26.070Z,48.6
2018-07-06T09:20:26.578Z,48.0
2018-07-06T09:21:27.312Z,47.3
2018-07-06T09:22:27.997Z,47.0
2018-07-06T09:23:28.680Z,46.4
2018-07-06T09:24:29.364Z,46.3
2018-07-06T09:25:30.185Z,44.7
2018-07-06T09:26:30.791Z,44.6
2018-07-06T09:27:31.519Z,44.1
2018-07-06T09:28:32.250Z,43.7
2018-07-06T09:29:32.936Z,42.4
2018-07-06T09:30:33.621Z,41.9
2018-07-06T09:31:34.354Z,41.5
2018-07-06T09:32:35.040Z,41.4
2018-07-06T09:33:35.740Z,42.4
2018-07-06T09:34:36.458Z,41.9
2018-07-06T09:35:37.194Z,41.7
2018-07-06T09:36:37.929Z,41.8
2018-07-06T09:37:38.608Z,42.4
2018-07-06T09:38:39.290Z,42.7
2018-07-06T09:39:39.973Z,42.7
2018-07-06T09:40:40.661Z,41.7
2018-07-06T09:41:41.340Z,41.9
2018-07-06T09:42:42.027Z,41.4
2018-07-06T09:43:43.521Z,39.7
2018-07-06T09:44:44.207Z,39.2
2018-07-06T09:45:44.941Z,39.2
2018-07-06T09:46:45.676Z,38.3
2018-07-06T09:47:46.767Z,39.1
2018-07-06T09:50:03.824Z,38.7
2018-07-06T09:51:04.987Z,37.9
2018-07-06T09:53:22.643Z,35.7
2018-07-06T10:53:55.111Z,54.0
2018-07-06T10:54:55.890Z,53.4
2018-07-06T10:55:56.673Z,53.5
2018-07-06T10:56:57.406Z,54.2
2018-07-06T10:57:58.187Z,53.2
2018-07-06T10:58:58.918Z,52.7
2018-07-06T10:59:59.650Z,53.0
2018-07-06T11:01:00.385Z,53.6
2018-07-06T11:02:01.066Z,54.6
2018-07-06T11:03:01.799Z,55.2
2018-07-06T11:04:02.531Z,55.4
2018-07-06T11:05:03.304Z,54.8
2018-07-06T11:06:03.989Z,54.6
2018-07-06T11:07:04.720Z,54.8
2018-07-06T11:08:05.453Z,55.4
2018-07-06T11:09:06.184Z,55.9
2018-07-06T11:10:06.914Z,56.1
2018-07-06T11:11:07.699Z,55.6
2018-07-06T11:12:08.417Z,54.9
2018-07-06T11:13:09.097Z,54.6
2018-07-06T11:14:09.828Z,54.0
2018-07-06T11:15:10.641Z,54.8
2018-07-06T11:16:11.394Z,55.5
2018-07-06T11:17:12.191Z,56.5
2018-07-06T11:18:12.904Z,57.6
2018-07-06T11:19:13.916Z,57.3
2018-07-06T11:20:14.661Z,57.0
2018-07-06T11:21:15.342Z,56.4
2018-07-06T11:22:16.480Z,57.1
2018-07-06T11:23:17.207Z,57.0
2018-07-06T11:24:17.939Z,57.1
2018-07-06T11:25:18.707Z,56.7
2018-07-06T11:26:19.440Z,56.8
2018-07-06T11:27:20.223Z,56.3
2018-07-06T11:28:20.952Z,57.0
2018-07-06T11:29:21.681Z,57.0
2018-07-06T11:30:22.412Z,57.1
2018-07-06T11:31:23.140Z,57.0
2018-07-06T11:33:39.586Z,56.3
2018-07-06T11:34:40.317Z,55.6
2018-07-06T11:35:41.099Z,56.9
2018-07-06T11:37:57.465Z,56.8
2018-07-06T11:38:58.080Z,56.3
2018-07-06T11:39:58.804Z,56.1
2018-07-06T11:40:59.535Z,56.3
2018-07-06T11:42:00.214Z,56.1
2018-07-06T11:43:00.900Z,55.9
2018-07-06T11:45:17.201Z,55.5
2018-07-06T11:46:18.119Z,56.0
2018-07-06T11:47:18.897Z,55.8
2018-07-06T11:48:19.677Z,55.8
2018-07-06T11:49:20.405Z,55.2
2018-07-06T11:50:21.099Z,55.5
2018-07-06T11:51:21.860Z,55.5
2018-07-06T11:52:22.593Z,55.8
2018-07-06T11:53:23.371Z,55.8
2018-07-06T11:54:24.057Z,55.2
2018-07-06T11:55:24.783Z,55.6
2018-07-06T11:56:25.561Z,55.5
2018-07-06T11:57:26.242Z,55.4
2018-07-06T11:58:26.924Z,54.8
2018-07-06T11:59:27.705Z,55.0
2018-07-06T12:00:28.385Z,55.5
2018-07-06T12:01:29.117Z,56.2
2018-07-06T12:02:29.806Z,56.7
2018-07-06T12:03:30.578Z,57.0
2018-07-06T12:05:46.773Z,56.8
2018-07-06T12:06:47.503Z,57.0
2018-07-06T12:09:03.999Z,57.6
2018-07-06T12:10:04.779Z,56.7
2018-07-06T12:11:05.760Z,56.7
2018-07-06T12:12:06.694Z,57.0
2018-07-06T12:13:07.471Z,57.1
2018-07-06T12:14:08.202Z,57.0
2018-07-06T12:15:08.933Z,57.0
2018-07-06T12:16:09.915Z,56.8
2018-07-06T12:17:10.647Z,57.3
2018-07-06T12:18:11.324Z,56.6
2018-07-06T12:19:12.074Z,57.6
2018-07-06T12:20:12.877Z,58.0
2018-07-06T12:21:13.667Z,58.1
2018-07-06T12:22:14.338Z,58.4
2018-07-06T12:23:15.070Z,58.4
2018-07-06T12:24:15.800Z,57.5
2018-07-06T12:25:16.481Z,57.3
2018-07-06T12:26:17.212Z,57.0
2018-07-06T12:27:17.942Z,57.2
2018-07-06T12:28:18.621Z,57.5
2018-07-06T12:29:19.301Z,57.1
2018-07-06T12:30:20.034Z,57.3
2018-07-06T12:31:20.764Z,56.8
2018-07-06T12:32:21.493Z,57.2
2018-07-06T12:33:22.223Z,57.3
2018-07-06T12:34:22.961Z,57.2
2018-07-06T12:35:23.735Z,57.2
2018-07-06T12:36:24.497Z,57.1
2018-07-06T12:37:25.285Z,56.8
2018-07-06T12:38:25.959Z,57.0
2018-07-06T12:39:26.721Z,56.7
2018-07-06T12:40:27.452Z,57.5
2018-07-06T12:41:28.219Z,57.3
2018-07-06T12:42:28.913Z,56.7
2018-07-06T12:43:29.592Z,57.3
2018-07-06T12:44:30.271Z,56.2
2018-07-06T12:45:31.002Z,56.8
2018-07-06T12:46:31.735Z,56.8
2018-07-06T12:47:32.462Z,56.7
2018-07-06T12:48:33.143Z,56.6
2018-07-06T12:49:33.824Z,56.1
2018-07-06T12:50:34.605Z,55.9
2018-07-06T12:51:35.384Z,55.7
2018-07-06T12:52:36.113Z,55.9
2018-07-06T12:53:36.843Z,55.8
2018-07-06T12:54:37.573Z,56.3
2018-07-06T12:55:38.302Z,55.8
2018-07-06T12:56:38.985Z,55.9
2018-07-06T12:57:39.714Z,55.5
2018-07-06T12:58:40.533Z,55.5
2018-07-06T12:59:41.124Z,55.5
2018-07-06T13:00:41.854Z,55.4
2018-07-06T13:01:42.585Z,55.2
2018-07-06T13:02:43.313Z,54.4
2018-07-06T13:03:44.042Z,54.3
2018-07-06T13:04:44.774Z,53.4
2018-07-06T13:05:45.555Z,54.0
2018-07-06T13:06:46.285Z,53.5
2018-07-06T13:07:47.013Z,53.2
2018-07-06T13:08:47.741Z,53.0
2018-07-06T13:09:48.471Z,53.5
2018-07-06T13:10:49.202Z,53.2
2018-07-06T13:11:49.930Z,53.4
2018-07-06T13:12:50.659Z,53.5
2018-07-06T13:13:51.441Z,53.4
2018-07-06T13:14:52.121Z,53.9
2018-07-06T13:15:52.851Z,53.6
2018-07-06T13:16:53.580Z,53.2
2018-07-06T13:17:54.311Z,53.4
2018-07-06T13:18:55.041Z,53.7
2018-07-06T13:19:55.822Z,53.4
2018-07-06T13:20:56.555Z,52.9
2018-07-06T13:21:57.275Z,52.0
2018-07-06T13:22:58.005Z,51.9
2018-07-06T13:23:58.734Z,52.2
2018-07-06T13:24:59.467Z,52.0
2018-07-06T13:26:00.224Z,52.2
2018-07-06T13:27:00.925Z,51.8
2018-07-06T13:28:01.656Z,51.8
2018-07-06T13:29:02.387Z,52.1
2018-07-06T13:30:03.117Z,52.1
2018-07-06T13:31:03.847Z,52.1
2018-07-06T13:32:04.578Z,52.1
2018-07-06T13:33:05.260Z,52.7
2018-07-06T13:34:05.995Z,52.3
2018-07-06T13:35:06.724Z,52.2
2018-07-06T13:36:07.450Z,52.8
2018-07-06T13:37:08.129Z,52.8
2018-07-06T13:38:08.860Z,52.2
2018-07-06T13:39:09.664Z,52.8
2018-07-06T13:40:10.320Z,52.9
2018-07-06T13:41:11.102Z,52.1
2018-07-06T13:42:11.833Z,52.8
2018-07-06T13:43:12.515Z,52.9
2018-07-06T13:44:13.292Z,52.8
2018-07-06T13:45:14.022Z,53.4
2018-07-06T13:46:14.754Z,53.2
2018-07-06T13:47:15.534Z,52.8
2018-07-06T13:48:16.264Z,53.2
2018-07-06T13:49:16.994Z,52.5
2018-07-06T13:50:17.773Z,52.8
2018-07-06T13:51:18.503Z,52.6
2018-07-06T13:52:19.235Z,51.8
2018-07-06T13:53:19.967Z,51.5
2018-07-06T13:54:20.695Z,52.2
2018-07-06T13:55:21.425Z,52.8
2018-07-06T13:56:22.105Z,53.0
2018-07-06T13:57:22.834Z,53.2
2018-07-06T13:58:23.566Z,53.5
2018-07-06T13:59:24.301Z,52.7
2018-07-06T14:00:24.978Z,51.9
2018-07-06T14:01:25.708Z,52.7
2018-07-06T14:02:26.441Z,52.6
2018-07-06T14:03:27.169Z,52.3
2018-07-06T14:04:27.898Z,52.1
2018-07-06T14:05:28.630Z,51.9
2018-07-06T14:06:29.311Z,51.9
2018-07-06T14:07:30.043Z,51.5
2018-07-06T14:08:30.773Z,52.3
2018-07-06T14:09:31.501Z,50.8
2018-07-06T14:10:32.233Z,50.6
2018-07-06T14:11:32.961Z,50.7
2018-07-06T14:12:33.693Z,50.4
2018-07-06T14:13:34.423Z,51.6
2018-07-06T14:14:35.153Z,51.7
2018-07-06T14:15:35.924Z,51.2
2018-07-06T14:16:36.611Z,51.6
2018-07-06T14:17:37.342Z,52.1
2018-07-06T14:18:38.095Z,51.9
2018-07-06T14:19:38.897Z,51.5
2018-07-06T14:20:39.585Z,51.9
2018-07-06T14:21:40.366Z,51.4
2018-07-06T14:22:41.123Z,51.2
2018-07-06T14:23:41.796Z,51.2
2018-07-06T14:24:42.511Z,51.3
2018-07-06T14:25:43.240Z,50.4
2018-07-06T14:26:43.970Z,50.6
2018-07-06T14:27:44.699Z,49.9
2018-07-06T14:28:45.431Z,50.4
2018-07-06T14:29:46.162Z,49.8
2018-07-06T14:30:46.848Z,49.6
2018-07-06T14:31:47.572Z,50.1
2018-07-06T14:32:48.302Z,50.4
2018-07-06T14:33:49.031Z,50.7
2018-07-06T14:34:49.769Z,51.2